San Bernardino, CA (92405)

1:59 AM PDT on August 29, 2014 (GMT -0700)
North San Bernardino | Change Station
CLOSE
Current Station
Personal Weather Station
Location: San Bernardino, CA
Elevation: 1278 ft
Nearby Weather Stations

Elev 1278 ft 34.16 °N, 117.29 °W | Updated 4 seconds ago

Clear
Clear
71.8 °F
Feels Like 77 °F
N
0.0
Wind Variable Wind from WSW
Gusts 0.0 mph

Today
High -- | Low -- °F
--% Chance of Precip.
Yesterday
High -- | Low -- °F
Precip. -- in
6:20 AM 7:18 PM
Waxing Crescent, 13% visible
Pressure 29.85 in
Visibility 10.0 miles
Clouds Clear
Heat Index 77 °F
Dew Point 52 °F
Humidity 50%
Rainfall 0.00 in
Snow Depth Not available.
UV 0 out of 12
Pollen 7.80 out of 12
Ozone Good
PM2.5 Moderate
Flu Activity Not available.
METAR KRAL 290853Z AUTO 00000KT 10SM CLR 23/09 A2990 RMK AO2 SLP107 T02280094 58007

More Conditions Fewer Conditions

Pressure 29.85 in
Visibility 10.0 miles
Clouds Clear
Heat Index 77 °F
Dew Point 52 °F
Humidity 50%
Rainfall 0.00 in
Snow Depth Not available.
UV 0 out of 12
Pollen 7.80 out of 12
Ozone Good
PM2.5 Moderate
Flu Activity Not available.
METAR KRAL 290853Z AUTO 00000KT 10SM CLR 23/09 A2990 RMK AO2 SLP107 T02280094 58007

More Conditions Fewer Conditions

10-Day Weather Forecast

Almanac

Astronomy

Aug. 29, 2014 Rise Set
Actual Time 6:20 AM PDT 7:18 PM PDT
Civil Twilight 5:54 AM PDT 7:44 PM PDT
Nautical Twilight 5:24 AM PDT 8:14 PM PDT
Astronomical Twilight 4:53 AM PDT 8:46 PM PDT
Moon 10:02 AM PDT 9:32 PM PDT
Length of Visible Light 13h 49m
Length of Day
12h 58m
Tomorrow will be 2m 1s shorter.
Waxing Crescent, 13% of the Moon is Illuminated
Today
Waxing Crescent
Sep 2
First Quarter
Sep 8
Full
Sep 15
Last Quarter
Sep 24
New

Today's Extremes

State Highs State Lows

Community

WunderPhotos

Upload Photos

1,748,197 photos uploaded!

Nearby

Air Quality

  Air Quality AQ Index Pollutant
Yesterday Moderate
OZONE
Yesterday Good
PM10
Current Moderate
PM2.5
Current Good
OZONE
Friday Unhealthy for Sensitive Groups
OZONE
Friday Good
PM10
Friday Good
CO
Friday Good
NO2

Snow Depth

Station Depth Elevation
Leavitt Lake 1 in 9400 ft
Leavitt Meadows 1 in 7200 ft
Monitor Pass 0 in 8350 ft
Blue Lakes 0 in 8000 ft
Forestdale Creek 0 in 8029 ft

Earthquake Activity

City Distance Mag. Time & Date
No recent earthquake activity has been reported nearby.
Minimum magnitude displayed is 2.5.

Coastal Water Temperatures

Place Temperature
No Stations Reporting

Nearby Weather Stations